createdAt,value
2018-01-14T00:00:26.226Z,77.35
2018-01-14T00:01:25.688Z,77.44
2018-01-14T00:02:25.932Z,77.38
2018-01-14T00:03:25.176Z,77.45
2018-01-14T00:04:25.544Z,77.29
2018-01-14T00:05:25.476Z,77.44
2018-01-14T00:06:25.394Z,77.33
2018-01-14T00:07:25.500Z,77.5
2018-01-14T00:08:25.766Z,77.2
2018-01-14T00:09:26.116Z,77.25
2018-01-14T00:10:25.656Z,77.29
2018-01-14T00:11:25.163Z,77.32
2018-01-14T00:12:25.385Z,77.27
2018-01-14T00:13:25.387Z,77.14
2018-01-14T00:14:25.604Z,77.2
2018-01-14T00:15:25.692Z,77.38
2018-01-14T00:16:25.664Z,77.24
2018-01-14T00:17:25.899Z,77.11
2018-01-14T00:18:26.010Z,77.22
2018-01-14T00:19:25.676Z,77.32
2018-01-14T00:20:25.444Z,77.22
2018-01-14T00:21:26.140Z,77.29
2018-01-14T00:22:25.534Z,77.45
2018-01-14T00:23:25.552Z,77.5
2018-01-14T00:24:25.466Z,77.65
2018-01-14T00:25:26.855Z,77.66
2018-01-14T00:26:25.998Z,77.67
2018-01-14T00:27:26.708Z,77.66
2018-01-14T00:28:25.271Z,77.7
2018-01-14T00:29:25.994Z,77.9
2018-01-14T00:30:25.586Z,77.92
2018-01-14T00:31:25.588Z,77.96
2018-01-14T00:32:25.868Z,77.99
2018-01-14T00:33:25.794Z,78
2018-01-14T00:34:27.471Z,78.08
2018-01-14T00:35:25.995Z,78.27
2018-01-14T00:36:25.692Z,78.15
2018-01-14T00:37:26.431Z,78.18
2018-01-14T00:38:26.387Z,78.38
2018-01-14T00:39:25.867Z,78.52
2018-01-14T00:40:26.131Z,78.56
2018-01-14T00:41:25.916Z,78.64
2018-01-14T00:42:25.664Z,78.67
2018-01-14T00:43:25.601Z,78.52
2018-01-14T00:44:25.325Z,78.46
2018-01-14T00:45:25.845Z,78.32
2018-01-14T00:46:25.981Z,78.37
2018-01-14T00:47:25.858Z,78.38
2018-01-14T00:48:26.058Z,78.37
2018-01-14T00:49:26.248Z,78.34
2018-01-14T00:50:25.824Z,78.57
2018-01-14T00:51:25.712Z,78.64
2018-01-14T00:52:25.946Z,78.75
2018-01-14T00:53:25.815Z,78.68
2018-01-14T00:54:26.168Z,78.75
2018-01-14T00:55:26.084Z,78.68
2018-01-14T00:56:26.037Z,78.78
2018-01-14T00:57:25.573Z,78.48
2018-01-14T00:58:25.876Z,78.66
2018-01-14T00:59:26.149Z,78.57
2018-01-14T01:00:25.933Z,78.59
2018-01-14T01:01:26.201Z,78.68
2018-01-14T01:02:25.756Z,78.87
2018-01-14T01:03:25.740Z,79.06
2018-01-14T01:04:25.503Z,78.97
2018-01-14T01:05:25.256Z,78.99
2018-01-14T01:06:25.812Z,79.09
2018-01-14T01:07:26.010Z,79.22
2018-01-14T01:08:25.815Z,79.16
2018-01-14T01:09:25.512Z,79.33
2018-01-14T01:10:25.815Z,79.26
2018-01-14T01:11:26.555Z,79.31
2018-01-14T01:12:25.729Z,79.36
2018-01-14T01:13:27.046Z,79.4
2018-01-14T01:14:26.499Z,79.42
2018-01-14T01:15:26.074Z,79.55
2018-01-14T01:16:25.675Z,79.6
2018-01-14T01:17:25.801Z,79.34
2018-01-14T01:18:25.151Z,79.47
2018-01-14T01:19:26.352Z,79.59
2018-01-14T01:20:25.497Z,79.64
2018-01-14T01:21:26.226Z,79.58
2018-01-14T01:22:25.837Z,79.65
2018-01-14T01:23:25.581Z,79.71
2018-01-14T01:24:26.241Z,79.83
2018-01-14T01:25:26.086Z,79.85
2018-01-14T01:26:26.183Z,79.73
2018-01-14T01:27:26.341Z,79.83
2018-01-14T01:28:25.466Z,79.87
2018-01-14T01:29:25.561Z,79.79
2018-01-14T01:30:25.905Z,80.04
2018-01-14T01:31:25.994Z,80
2018-01-14T01:32:25.736Z,80.03
2018-01-14T01:33:25.840Z,80.04
2018-01-14T01:34:26.398Z,80.13
2018-01-14T01:35:25.709Z,80.07
2018-01-14T01:36:25.943Z,79.91
2018-01-14T01:37:25.603Z,80.21
2018-01-14T01:38:26.236Z,80.18
2018-01-14T01:39:25.586Z,80
2018-01-14T01:40:25.741Z,80.2
2018-01-14T01:41:25.784Z,80.38
2018-01-14T01:42:25.633Z,80.31
2018-01-14T01:43:26.007Z,80.28
2018-01-14T01:44:25.776Z,80.38
2018-01-14T01:45:25.915Z,80.49
2018-01-14T01:46:25.918Z,80.43
2018-01-14T01:47:25.902Z,80.45
2018-01-14T01:48:26.119Z,80.46
2018-01-14T01:49:25.981Z,80.51
2018-01-14T01:50:25.380Z,80.62
2018-01-14T01:51:26.816Z,80.58
2018-01-14T01:52:25.736Z,80.44
2018-01-14T01:53:25.288Z,80.47
2018-01-14T01:54:26.248Z,80.51
2018-01-14T01:55:25.561Z,80.6
2018-01-14T01:56:26.773Z,80.66
2018-01-14T01:57:25.997Z,80.47
2018-01-14T01:58:25.896Z,80.46
2018-01-14T01:59:26.023Z,80.5
2018-01-14T02:00:25.686Z,80.46
2018-01-14T02:01:25.814Z,80.59
2018-01-14T02:02:25.615Z,80.42
2018-01-14T02:03:26.183Z,80.56
2018-01-14T02:04:26.291Z,80.56
2018-01-14T02:05:26.006Z,80.64
2018-01-14T02:06:25.356Z,80.69
2018-01-14T02:07:25.546Z,80.67
2018-01-14T02:08:26.098Z,80.54
2018-01-14T02:09:26.002Z,80.68
2018-01-14T02:10:25.592Z,80.41
2018-01-14T02:11:25.787Z,80.52
2018-01-14T02:12:25.336Z,80.61
2018-01-14T02:13:25.679Z,80.68
2018-01-14T02:14:26.852Z,80.73
2018-01-14T02:15:25.840Z,80.51
2018-01-14T02:16:25.300Z,80.63
2018-01-14T02:17:25.883Z,80.74
2018-01-14T02:18:25.874Z,80.64
2018-01-14T02:19:26.219Z,80.88
2018-01-14T02:20:26.325Z,80.84
2018-01-14T02:21:26.200Z,80.83
2018-01-14T02:22:25.754Z,80.87
2018-01-14T02:23:26.320Z,80.93
2018-01-14T02:24:25.937Z,80.98
2018-01-14T02:25:25.761Z,80.98
2018-01-14T02:26:26.465Z,80.97
2018-01-14T02:27:26.322Z,80.89
2018-01-14T02:28:25.803Z,80.82
2018-01-14T02:29:25.414Z,80.86
2018-01-14T02:30:26.512Z,81.02
2018-01-14T02:31:25.776Z,81.07
2018-01-14T02:32:25.789Z,81.15
2018-01-14T02:35:25.123Z,81.05
2018-01-14T02:36:26.176Z,81.07
2018-01-14T02:37:26.607Z,81.16
2018-01-14T02:38:25.133Z,81.35
2018-01-14T02:39:24.758Z,81.2
2018-01-14T02:40:25.127Z,81.2
2018-01-14T02:41:24.666Z,81.08
2018-01-14T02:42:24.673Z,81.18
2018-01-14T02:43:24.713Z,81.25
2018-01-14T02:44:24.837Z,81.2
2018-01-14T02:45:25.652Z,81.3
2018-01-14T02:46:24.679Z,81.42
2018-01-14T02:47:25.811Z,81.41
2018-01-14T02:48:25.227Z,81.48
2018-01-14T02:49:24.962Z,81.53
2018-01-14T02:50:24.643Z,81.58
2018-01-14T02:51:24.986Z,81.59
2018-01-14T02:52:25.432Z,81.7
2018-01-14T02:53:25.188Z,81.67
2018-01-14T02:54:25.663Z,81.73
2018-01-14T02:55:24.864Z,81.75
2018-01-14T02:56:25.290Z,81.74
2018-01-14T02:57:26.044Z,81.72
2018-01-14T02:58:25.251Z,81.77
2018-01-14T02:59:25.429Z,81.74
2018-01-14T03:00:26.128Z,81.58
2018-01-14T03:01:24.952Z,81.69
2018-01-14T03:02:24.968Z,81.69
2018-01-14T03:03:24.639Z,81.82
2018-01-14T03:04:24.889Z,81.79
2018-01-14T03:05:25.590Z,81.91
2018-01-14T03:06:25.785Z,81.87
2018-01-14T03:07:24.706Z,81.83
2018-01-14T03:08:24.578Z,81.99
2018-01-14T03:09:24.525Z,81.93
2018-01-14T03:10:25.183Z,82
2018-01-14T03:11:24.833Z,81.96
2018-01-14T03:12:24.923Z,82.15
2018-01-14T03:13:24.819Z,82.16
2018-01-14T03:14:26.087Z,81.98
2018-01-14T03:15:25.126Z,82.04
2018-01-14T03:16:25.280Z,82.08
2018-01-14T03:17:25.011Z,82.18
2018-01-14T03:18:26.479Z,81.95
2018-01-14T03:19:24.801Z,82.09
2018-01-14T03:20:25.500Z,82.09
2018-01-14T03:21:25.106Z,81.86
2018-01-14T03:22:25.014Z,81.94
2018-01-14T03:23:25.857Z,82.11
2018-01-14T03:24:24.676Z,82.02
2018-01-14T03:25:25.365Z,82.02
2018-01-14T03:26:25.739Z,82.03
2018-01-14T03:27:25.112Z,82.06
2018-01-14T03:28:26.359Z,82.14
2018-01-14T03:29:24.822Z,82.03
2018-01-14T03:30:24.959Z,82.15
2018-01-14T03:31:25.455Z,82.18
2018-01-14T03:32:25.241Z,82.19
2018-01-14T03:33:24.648Z,82.14
2018-01-14T03:34:24.974Z,82.06
2018-01-14T03:35:25.002Z,82.12
2018-01-14T03:36:24.863Z,82.19
2018-01-14T03:37:25.378Z,82.52
2018-01-14T03:38:25.011Z,82.2
2018-01-14T03:39:25.811Z,82.28
2018-01-14T03:40:25.130Z,82.44
2018-01-14T03:41:24.779Z,82.41
2018-01-14T03:42:25.111Z,82.47
2018-01-14T03:43:24.897Z,82.41
2018-01-14T03:44:25.327Z,82.3
2018-01-14T03:45:25.655Z,82.34
2018-01-14T03:46:26.031Z,82.39
2018-01-14T03:47:26.120Z,82.38
2018-01-14T03:48:26.122Z,82.48
2018-01-14T03:49:25.890Z,82.45
2018-01-14T03:50:25.288Z,82.7
2018-01-14T03:51:25.050Z,82.6
2018-01-14T03:52:25.018Z,82.51
2018-01-14T03:53:25.620Z,82.69
2018-01-14T03:54:25.498Z,82.64
2018-01-14T03:55:24.595Z,82.61
2018-01-14T03:56:25.857Z,82.54
2018-01-14T03:57:25.098Z,82.61
2018-01-14T03:58:25.528Z,82.71
2018-01-14T03:59:26.483Z,82.7
2018-01-14T04:00:27.100Z,82.7
2018-01-14T04:01:25.035Z,82.72
2018-01-14T04:02:25.380Z,82.66
2018-01-14T04:03:25.345Z,82.69
2018-01-14T04:04:24.992Z,82.6
2018-01-14T04:05:24.902Z,82.6
2018-01-14T04:06:25.020Z,82.71
2018-01-14T04:07:26.407Z,82.61
2018-01-14T04:08:24.864Z,82.47
2018-01-14T04:09:24.977Z,82.43
2018-01-14T04:10:24.937Z,82.58
2018-01-14T04:11:24.657Z,82.53
2018-01-14T04:12:25.734Z,82.36
2018-01-14T04:13:25.565Z,82.52
2018-01-14T04:14:25.281Z,82.44
2018-01-14T04:15:25.493Z,82.34
2018-01-14T04:16:24.976Z,82.23
2018-01-14T04:17:24.773Z,82.48
2018-01-14T04:18:24.870Z,82.51
2018-01-14T04:19:24.719Z,82.41
2018-01-14T04:20:24.716Z,82.32
2018-01-14T04:21:25.008Z,82.33
2018-01-14T04:22:24.772Z,82.39
2018-01-14T04:23:24.894Z,82.33
2018-01-14T04:24:24.840Z,82.49
2018-01-14T04:25:24.709Z,82.26
2018-01-14T04:26:24.812Z,82.4
2018-01-14T04:27:24.922Z,82.34
2018-01-14T04:28:24.815Z,82.53
2018-01-14T04:29:24.886Z,82.43
2018-01-14T04:30:24.887Z,82.25
2018-01-14T04:31:24.740Z,82.44
2018-01-14T04:32:24.837Z,82.42
2018-01-14T04:33:24.970Z,82.53
2018-01-14T04:34:24.945Z,82.44
2018-01-14T04:35:24.864Z,82.43
2018-01-14T04:36:25.048Z,82.32
2018-01-14T04:37:24.883Z,82.33
2018-01-14T04:38:24.867Z,82.25
2018-01-14T04:39:24.776Z,82.25
2018-01-14T04:40:24.716Z,82.26
2018-01-14T04:41:24.942Z,82.21
2018-01-14T04:42:24.748Z,82.1
2018-01-14T04:43:25.036Z,82.19
2018-01-14T04:44:24.984Z,82.12
2018-01-14T04:45:24.839Z,82.19
2018-01-14T04:46:24.877Z,81.9
2018-01-14T04:47:24.935Z,82.16
2018-01-14T04:48:24.991Z,82.19
2018-01-14T04:49:25.016Z,82.19
2018-01-14T04:50:24.828Z,82.24
2018-01-14T04:51:24.895Z,82.2
2018-01-14T04:52:24.990Z,82.33
2018-01-14T04:53:24.941Z,82.2
2018-01-14T04:54:24.813Z,82.15
2018-01-14T04:55:24.983Z,82.2
2018-01-14T04:56:24.759Z,82.15
2018-01-14T04:57:24.867Z,82.19
2018-01-14T04:58:24.846Z,82.16
2018-01-14T04:59:24.863Z,82.13
2018-01-14T05:00:24.860Z,82.18
2018-01-14T05:01:24.939Z,82.18
2018-01-14T05:02:24.957Z,82.43
2018-01-14T05:03:24.919Z,82.37
2018-01-14T05:04:24.941Z,82.35
2018-01-14T05:05:24.994Z,82.31
2018-01-14T05:06:25.028Z,82.34
2018-01-14T05:07:24.770Z,82.13
2018-01-14T05:08:24.683Z,82.47
2018-01-14T05:09:24.891Z,82.31
2018-01-14T05:10:24.910Z,82.34
2018-01-14T05:11:24.837Z,82.27
2018-01-14T05:12:24.892Z,82.26
2018-01-14T05:13:24.786Z,82.54
2018-01-14T05:14:24.952Z,82.36
2018-01-14T05:15:25.041Z,82.3
2018-01-14T05:16:24.873Z,82.34
2018-01-14T05:17:25.071Z,82.52
2018-01-14T05:18:25.034Z,82.23
2018-01-14T05:19:24.835Z,82.4
2018-01-14T05:20:24.721Z,82.32
2018-01-14T05:21:24.974Z,82.37
2018-01-14T05:22:25.016Z,82.38
2018-01-14T05:23:25.078Z,82.19
2018-01-14T05:24:24.978Z,82.12
2018-01-14T05:25:24.977Z,82.19
2018-01-14T05:26:24.791Z,82.4
2018-01-14T05:27:24.985Z,82.4
2018-01-14T05:28:25.090Z,82.33
2018-01-14T05:29:24.925Z,82.43
2018-01-14T05:30:24.946Z,82.49
2018-01-14T05:31:24.896Z,82.49
2018-01-14T05:32:24.882Z,82.37
2018-01-14T05:33:25.053Z,82.6
2018-01-14T05:34:25.082Z,82.67
2018-01-14T05:35:24.801Z,82.7
2018-01-14T05:36:24.860Z,82.71
2018-01-14T05:37:24.985Z,82.76
2018-01-14T05:38:25.071Z,82.85
2018-01-14T05:39:24.979Z,82.59
2018-01-14T05:40:25.025Z,82.86
2018-01-14T05:41:25.046Z,82.82
2018-01-14T05:42:25.051Z,82.75
2018-01-14T05:43:24.995Z,82.92
2018-01-14T05:44:24.838Z,82.85
2018-01-14T05:45:24.995Z,82.78
2018-01-14T05:46:24.976Z,82.75
2018-01-14T05:47:24.921Z,82.82
2018-01-14T05:48:24.952Z,82.87
2018-01-14T05:49:25.032Z,83.03
2018-01-14T05:50:25.066Z,83.05
2018-01-14T05:51:25.036Z,82.96
2018-01-14T05:52:25.016Z,82.95
2018-01-14T05:53:25.155Z,82.88
2018-01-14T05:54:24.869Z,82.96
2018-01-14T05:55:24.906Z,82.99
2018-01-14T05:56:25.176Z,82.78
2018-01-14T05:57:24.862Z,82.82
2018-01-14T05:58:24.942Z,82.72
2018-01-14T05:59:25.205Z,82.82
2018-01-14T06:00:24.971Z,82.89
2018-01-14T06:01:24.939Z,82.88
2018-01-14T06:02:25.482Z,82.83
2018-01-14T06:03:24.909Z,82.64
2018-01-14T06:04:24.878Z,82.54
2018-01-14T06:05:25.271Z,82.65
2018-01-14T06:06:24.975Z,82.6
2018-01-14T06:07:24.848Z,82.33
2018-01-14T06:08:25.106Z,82.27
2018-01-14T06:09:24.926Z,82.24
2018-01-14T06:10:24.960Z,82.45
2018-01-14T06:11:24.990Z,82.45
2018-01-14T06:12:24.956Z,82.44
2018-01-14T06:13:25.084Z,82.42
2018-01-14T06:14:24.962Z,82.39
2018-01-14T06:15:25.076Z,82.35
2018-01-14T06:16:24.947Z,82.3
2018-01-14T06:17:24.925Z,82.13
2018-01-14T06:18:25.144Z,82.12
2018-01-14T06:19:25.050Z,82.17
2018-01-14T06:20:24.967Z,82.38
2018-01-14T06:21:25.076Z,82.21
2018-01-14T06:22:25.800Z,81.92
2018-01-14T06:23:25.070Z,81.9
2018-01-14T06:24:25.078Z,82.08
2018-01-14T06:25:25.100Z,82.01
2018-01-14T06:26:25.048Z,82
2018-01-14T06:27:25.089Z,81.88
2018-01-14T06:28:25.135Z,81.92
2018-01-14T06:29:25.238Z,81.95
2018-01-14T06:30:24.910Z,82.21
2018-01-14T06:31:25.042Z,82.12
2018-01-14T06:32:25.078Z,82.04
2018-01-14T06:33:24.924Z,82.08
2018-01-14T06:34:24.895Z,82.19
2018-01-14T06:35:25.081Z,81.93
2018-01-14T06:36:24.911Z,81.96
2018-01-14T06:37:25.117Z,81.79
2018-01-14T06:38:25.089Z,81.92
2018-01-14T06:39:25.062Z,82.02
2018-01-14T06:40:24.899Z,81.89
2018-01-14T06:41:24.928Z,82.06
2018-01-14T06:42:25.144Z,81.58
2018-01-14T06:43:25.656Z,81.64
2018-01-14T06:44:25.089Z,81.66
2018-01-14T06:45:25.047Z,81.79
2018-01-14T06:46:25.041Z,81.71
2018-01-14T06:47:25.138Z,81.86
2018-01-14T06:48:25.053Z,81.52
2018-01-14T06:49:25.047Z,81.65
2018-01-14T06:50:25.150Z,81.7
2018-01-14T06:51:25.168Z,81.66
2018-01-14T06:52:25.152Z,81.63
2018-01-14T06:53:24.969Z,81.57
2018-01-14T06:54:25.017Z,81.57
2018-01-14T06:55:24.951Z,81.46
2018-01-14T06:56:25.053Z,81.63
2018-01-14T06:57:25.053Z,81.61
2018-01-14T06:58:25.033Z,81.49
2018-01-14T06:59:25.154Z,81.6
2018-01-14T07:00:25.263Z,81.61
2018-01-14T07:01:25.269Z,81.67
2018-01-14T07:02:25.089Z,81.69
2018-01-14T07:03:25.121Z,81.69
2018-01-14T07:04:25.013Z,81.57
2018-01-14T07:05:25.158Z,81.71
2018-01-14T07:06:25.175Z,81.52
2018-01-14T07:07:25.161Z,81.33
2018-01-14T07:08:25.098Z,81.29
2018-01-14T07:09:25.086Z,81.41
2018-01-14T07:10:25.183Z,81.55
2018-01-14T07:11:25.251Z,81.43
2018-01-14T07:12:25.209Z,81.51
2018-01-14T07:13:25.142Z,81.46
2018-01-14T07:14:24.967Z,81.52
2018-01-14T07:15:25.410Z,81.33
2018-01-14T07:16:25.272Z,81.4
2018-01-14T07:17:25.282Z,81.45
2018-01-14T07:18:25.269Z,81.12
2018-01-14T07:19:25.348Z,81.24
2018-01-14T07:20:25.149Z,81.1
2018-01-14T07:21:25.125Z,81.21
2018-01-14T07:22:25.211Z,81.2
2018-01-14T07:23:25.143Z,81.14
2018-01-14T07:24:25.185Z,81.28
2018-01-14T07:25:25.667Z,81.28
2018-01-14T07:26:25.120Z,81.32
2018-01-14T07:27:25.310Z,81.34
2018-01-14T07:28:25.293Z,81.2
2018-01-14T07:29:25.270Z,81.36
2018-01-14T07:30:25.042Z,81.44
2018-01-14T07:31:25.350Z,81.33
2018-01-14T07:32:25.116Z,81.23
2018-01-14T07:33:25.261Z,81.31
2018-01-14T07:34:25.360Z,81.2
2018-01-14T07:35:25.250Z,81.18
2018-01-14T07:36:25.125Z,81.19
2018-01-14T07:37:25.181Z,81.08
2018-01-14T07:38:25.380Z,81.09
2018-01-14T07:39:25.312Z,81.21
2018-01-14T07:40:25.209Z,81.17
2018-01-14T07:41:25.075Z,81.29
2018-01-14T07:42:25.311Z,81.43
2018-01-14T07:43:25.335Z,81.08
2018-01-14T07:44:25.065Z,81.04
2018-01-14T07:45:25.395Z,80.96
2018-01-14T07:46:25.400Z,81.17
2018-01-14T07:47:25.275Z,81.01
2018-01-14T07:48:25.326Z,80.81
2018-01-14T07:49:25.334Z,81.03
2018-01-14T07:50:25.240Z,81.07
2018-01-14T07:51:25.200Z,81.08
2018-01-14T07:52:25.574Z,80.94
2018-01-14T07:53:25.191Z,80.54
2018-01-14T07:54:25.507Z,80.68
2018-01-14T07:55:25.334Z,80.76
2018-01-14T07:56:25.282Z,80.85
2018-01-14T07:57:25.329Z,80.78
2018-01-14T07:58:25.709Z,80.54
2018-01-14T07:59:25.505Z,80.51
2018-01-14T08:00:25.434Z,80.61
2018-01-14T08:01:25.283Z,80.77
2018-01-14T08:02:25.332Z,80.92
2018-01-14T08:03:25.227Z,80.81
2018-01-14T08:04:25.196Z,80.7
2018-01-14T08:05:25.411Z,80.63
2018-01-14T08:06:25.319Z,80.7
2018-01-14T08:07:25.414Z,80.77
2018-01-14T08:08:25.561Z,80.35
2018-01-14T08:09:25.198Z,80.3
2018-01-14T08:10:25.315Z,80.39
2018-01-14T08:11:25.351Z,80.37
2018-01-14T08:12:25.323Z,80.28
2018-01-14T08:13:25.337Z,80.24
2018-01-14T08:14:25.416Z,79.95
2018-01-14T08:15:25.456Z,79.52
2018-01-14T08:16:24.414Z,79.77
2018-01-14T08:17:24.435Z,79.54
2018-01-14T08:18:24.490Z,79.77
2018-01-14T08:19:24.610Z,79.73
2018-01-14T08:20:24.885Z,79.35
2018-01-14T08:21:24.653Z,79.51
2018-01-14T08:22:24.435Z,79.51
2018-01-14T08:23:24.386Z,79.46
2018-01-14T08:24:24.685Z,79.49
2018-01-14T08:25:24.524Z,79.48
2018-01-14T08:26:24.269Z,79.5
2018-01-14T08:27:24.543Z,79.44
2018-01-14T08:28:24.303Z,79.41
2018-01-14T08:29:24.469Z,79.56
2018-01-14T08:30:24.299Z,79.35
2018-01-14T08:31:24.426Z,79.35
2018-01-14T08:32:24.435Z,79.59
2018-01-14T08:33:24.440Z,79.25
2018-01-14T08:34:24.222Z,79.22
2018-01-14T08:35:24.600Z,79
2018-01-14T08:36:24.343Z,79.16
2018-01-14T08:37:24.335Z,78.96
2018-01-14T08:38:24.242Z,79.04
2018-01-14T08:39:24.390Z,78.88
2018-01-14T08:40:24.356Z,78.83
2018-01-14T08:41:24.343Z,78.53
2018-01-14T08:42:24.402Z,78.51
2018-01-14T08:43:24.328Z,78.58
2018-01-14T08:44:24.282Z,78.61
2018-01-14T08:45:24.403Z,78.51
2018-01-14T08:46:24.427Z,78.86
2018-01-14T08:47:24.550Z,78.22
2018-01-14T08:48:24.365Z,78.46
2018-01-14T08:49:24.447Z,78.52
2018-01-14T08:50:24.568Z,78.4
2018-01-14T08:51:24.294Z,78.32
2018-01-14T08:52:24.620Z,78.47
2018-01-14T08:53:24.462Z,77.94
2018-01-14T08:54:24.521Z,78.17
2018-01-14T08:55:24.326Z,78.03
2018-01-14T08:56:24.341Z,77.98
2018-01-14T08:57:24.422Z,78.3
2018-01-14T08:58:24.929Z,78.03
2018-01-14T08:59:24.528Z,78.15
2018-01-14T09:00:24.397Z,78.35
2018-01-14T09:01:24.465Z,78.27
2018-01-14T09:02:24.423Z,77.92
2018-01-14T09:03:24.377Z,78.05
2018-01-14T09:04:24.357Z,77.95
2018-01-14T09:05:24.431Z,77.88
2018-01-14T09:06:24.409Z,77.43
2018-01-14T09:07:24.480Z,77.53
2018-01-14T09:08:24.383Z,77.72
2018-01-14T09:09:24.412Z,77.39
2018-01-14T09:10:24.462Z,77.38
2018-01-14T09:11:24.658Z,77.18
2018-01-14T09:12:24.642Z,77.17
2018-01-14T09:13:24.449Z,77.26
2018-01-14T09:14:24.365Z,77.3
2018-01-14T09:15:24.702Z,77.07
2018-01-14T09:16:24.413Z,77.14
2018-01-14T09:17:24.560Z,77.1
2018-01-14T09:18:24.497Z,77.14
2018-01-14T09:19:24.513Z,77.32
2018-01-14T09:20:24.570Z,77.14
2018-01-14T09:21:24.369Z,77.28
2018-01-14T09:22:24.381Z,77.21
2018-01-14T09:23:24.506Z,77.06
2018-01-14T09:24:24.504Z,76.95
2018-01-14T09:25:24.475Z,76.98
2018-01-14T09:26:24.541Z,76.98
2018-01-14T09:27:24.581Z,76.84
2018-01-14T09:28:24.587Z,76.64
2018-01-14T09:29:24.550Z,76.7
2018-01-14T09:30:24.547Z,76.77
2018-01-14T09:31:24.474Z,76.51
2018-01-14T09:32:24.748Z,76.47
2018-01-14T09:33:24.387Z,76.47
2018-01-14T09:34:24.626Z,76.03
2018-01-14T09:35:24.361Z,76.08
2018-01-14T09:36:24.611Z,76.13
2018-01-14T09:37:24.402Z,76.34
2018-01-14T09:38:24.974Z,76.55
2018-01-14T09:39:24.378Z,76.41
2018-01-14T09:40:24.729Z,76.34
2018-01-14T09:41:24.705Z,75.74
2018-01-14T09:42:24.516Z,75.72
2018-01-14T09:43:24.845Z,75.89
2018-01-14T09:44:24.526Z,75.67
2018-01-14T09:45:24.542Z,75.61
2018-01-14T09:46:24.628Z,76.02
2018-01-14T09:47:24.652Z,75.67
2018-01-14T09:48:24.658Z,76.02
2018-01-14T09:49:24.631Z,76.08
2018-01-14T09:50:24.413Z,75.44
2018-01-14T09:51:24.660Z,75.5
2018-01-14T09:52:24.519Z,75.88
2018-01-14T09:53:24.566Z,75.88
2018-01-14T09:54:24.548Z,75.72
2018-01-14T09:55:24.538Z,75.45
2018-01-14T09:56:24.726Z,75.29
2018-01-14T09:57:24.821Z,75.31
2018-01-14T09:58:24.596Z,75.59
2018-01-14T09:59:24.803Z,75.36
2018-01-14T10:00:24.718Z,75.53
2018-01-14T10:01:24.755Z,74.92
2018-01-14T10:02:24.478Z,74.78
2018-01-14T10:03:24.682Z,74.81
2018-01-14T10:04:24.673Z,74.67
2018-01-14T10:05:24.806Z,75.02
2018-01-14T10:06:24.600Z,75.21
2018-01-14T10:07:24.656Z,74.96
2018-01-14T10:08:24.631Z,75.07
2018-01-14T10:09:25.625Z,75.29
2018-01-14T10:10:24.735Z,75.06
2018-01-14T10:11:24.574Z,74.97
2018-01-14T10:12:24.640Z,74.97
2018-01-14T10:13:24.648Z,74.74
2018-01-14T10:14:24.741Z,74.42
2018-01-14T10:15:24.479Z,74.37
2018-01-14T10:16:24.642Z,74.4
2018-01-14T10:17:24.518Z,74.64
2018-01-14T10:18:24.406Z,74.61
2018-01-14T10:19:24.597Z,74.67
2018-01-14T10:20:24.702Z,74.37
2018-01-14T10:21:24.722Z,74.26
2018-01-14T10:22:24.438Z,74.08
2018-01-14T10:23:24.626Z,74.45
2018-01-14T10:24:24.518Z,74.48
2018-01-14T10:25:24.874Z,74.7
2018-01-14T10:26:25.414Z,74.29
2018-01-14T10:27:24.646Z,74.25
2018-01-14T10:28:24.508Z,73.92
2018-01-14T10:29:24.577Z,74.38
2018-01-14T10:30:24.502Z,74.63
2018-01-14T10:31:24.704Z,74.11
2018-01-14T10:32:24.638Z,73.69
2018-01-14T10:33:24.746Z,73.52
2018-01-14T10:34:24.650Z,73.71
2018-01-14T10:35:24.539Z,74.08
2018-01-14T10:36:24.589Z,74.32
2018-01-14T10:37:24.742Z,73.6
2018-01-14T10:38:25.074Z,73.63
2018-01-14T10:39:24.628Z,73.35
2018-01-14T10:40:24.794Z,73.45
2018-01-14T10:41:24.608Z,73.59
2018-01-14T10:42:28.260Z,73.48
2018-01-14T10:43:24.761Z,73.78
2018-01-14T10:44:24.719Z,73.66
2018-01-14T10:45:26.727Z,73.31
2018-01-14T10:46:25.439Z,73.51
2018-01-14T10:47:24.640Z,73.03
2018-01-14T10:48:28.552Z,73.22
2018-01-14T10:49:27.620Z,72.84
2018-01-14T10:50:28.037Z,72.69
2018-01-14T10:51:24.713Z,73.24
2018-01-14T10:52:24.697Z,73.04
2018-01-14T10:53:24.611Z,73.57
2018-01-14T10:54:24.605Z,72.91
2018-01-14T10:55:24.602Z,73.11
2018-01-14T10:56:24.723Z,72.75
2018-01-14T10:57:24.574Z,72.76
2018-01-14T10:58:29.065Z,73.15
2018-01-14T10:59:28.446Z,72.98
2018-01-14T11:00:27.593Z,73.04
2018-01-14T11:01:24.745Z,72.77
2018-01-14T11:02:24.708Z,72.43
2018-01-14T11:03:25.343Z,72.96
2018-01-14T11:04:24.563Z,73.07
2018-01-14T11:05:41.529Z,72.77
2018-01-14T11:06:26.947Z,72.33
2018-01-14T11:07:14.199Z,72.85
2018-01-14T11:08:19.034Z,72.61
2018-01-14T11:09:20.715Z,72.01
2018-01-14T11:10:13.891Z,71.8
2018-01-14T11:11:13.912Z,72.26
2018-01-14T11:12:15.842Z,72.39
2018-01-14T11:13:14.342Z,72.01
2018-01-14T11:14:14.084Z,72.3
2018-01-14T11:15:13.918Z,72.05
2018-01-14T11:16:13.996Z,71.78
2018-01-14T11:17:13.993Z,72.27
2018-01-14T11:18:14.192Z,71.13
2018-01-14T11:19:13.848Z,71.77
2018-01-14T11:20:14.069Z,71.23
2018-01-14T11:21:14.648Z,71.54
2018-01-14T11:22:13.890Z,71.6
2018-01-14T11:23:14.073Z,71.25
2018-01-14T11:24:14.286Z,71.47
2018-01-14T11:25:14.174Z,71.37
2018-01-14T11:26:14.110Z,71.64
2018-01-14T11:27:14.107Z,71.84
2018-01-14T11:28:14.182Z,70.99
2018-01-14T11:29:14.296Z,71.24
2018-01-14T11:30:14.019Z,71.44
2018-01-14T11:31:13.973Z,71.38
2018-01-14T11:32:14.101Z,70.98
2018-01-14T11:33:14.065Z,71.13
2018-01-14T11:34:14.089Z,71.19
2018-01-14T11:35:13.989Z,71.19
2018-01-14T11:36:14.139Z,70.96
2018-01-14T11:37:14.063Z,71.06
2018-01-14T11:38:14.063Z,70.84
2018-01-14T11:39:13.946Z,71.05
2018-01-14T11:40:14.094Z,71.23
2018-01-14T11:41:14.099Z,71.36
2018-01-14T11:42:14.096Z,71.01
2018-01-14T11:43:14.287Z,70.69
2018-01-14T11:44:14.244Z,70.89
2018-01-14T11:45:14.290Z,71.05
2018-01-14T11:46:13.918Z,70.89
2018-01-14T11:47:14.126Z,71.02
2018-01-14T11:48:14.070Z,70.32
2018-01-14T11:49:14.035Z,70.2
2018-01-14T11:50:14.266Z,70.48
2018-01-14T11:51:14.138Z,70.37
2018-01-14T11:52:14.170Z,70.21
2018-01-14T11:53:14.097Z,70.51
2018-01-14T11:54:14.170Z,70.53
2018-01-14T11:55:14.239Z,70.65
2018-01-14T11:56:14.321Z,70.98
2018-01-14T11:57:14.078Z,70.68
2018-01-14T11:58:14.019Z,70.84
2018-01-14T11:59:14.127Z,71.04
2018-01-14T12:00:14.122Z,70.45
2018-01-14T12:01:14.821Z,70.67
2018-01-14T12:02:14.219Z,70.47
2018-01-14T12:03:13.910Z,70.78
2018-01-14T12:04:13.942Z,70.9
2018-01-14T12:05:14.079Z,70.42
2018-01-14T12:06:13.975Z,70.73
2018-01-14T12:07:14.134Z,70.48
2018-01-14T12:08:14.155Z,70.32
2018-01-14T12:09:14.041Z,70.37
2018-01-14T12:10:14.202Z,70.44
2018-01-14T12:11:14.341Z,69.89
2018-01-14T12:12:14.016Z,70.22
2018-01-14T12:14:06.864Z,70.48
2018-01-14T12:15:06.957Z,70.4
2018-01-14T12:16:06.946Z,70.38
2018-01-14T12:17:05.613Z,70.77
2018-01-14T12:18:05.771Z,70.21
2018-01-14T12:19:05.687Z,70.49
2018-01-14T12:20:07.057Z,70.44
2018-01-14T12:21:05.695Z,70.79
2018-01-14T12:22:06.874Z,70.21
2018-01-14T12:23:05.785Z,70.3
2018-01-14T12:24:06.897Z,70.1
2018-01-14T12:25:05.539Z,70.02
2018-01-14T12:26:05.709Z,70.5
2018-01-14T12:27:06.829Z,70.22
2018-01-14T12:28:05.794Z,70.02
2018-01-14T12:29:06.859Z,70.34
2018-01-14T12:30:05.737Z,70.17
2018-01-14T12:31:06.992Z,70.17
2018-01-14T12:32:06.916Z,70.34
2018-01-14T12:33:07.061Z,70.35
2018-01-14T12:34:05.757Z,70.05
2018-01-14T12:35:05.792Z,70.34
2018-01-14T12:36:05.999Z,70.41
2018-01-14T12:37:06.005Z,70.21
2018-01-14T12:38:05.647Z,70.25
2018-01-14T12:39:05.752Z,70.21
2018-01-14T12:40:05.764Z,70.52
2018-01-14T12:41:05.677Z,70.46
2018-01-14T12:42:05.910Z,70.15
2018-01-14T12:43:05.817Z,70.3
2018-01-14T12:44:05.687Z,69.93
2018-01-14T12:45:05.722Z,69.95
2018-01-14T12:46:05.867Z,70.16
2018-01-14T12:47:05.614Z,70.42
2018-01-14T12:48:05.987Z,69.44
2018-01-14T12:49:05.855Z,69.74
2018-01-14T12:50:05.589Z,69.99
2018-01-14T12:51:05.796Z,69.89
2018-01-14T12:52:05.729Z,69.67
2018-01-14T12:53:05.747Z,69.96
2018-01-14T12:54:05.901Z,69.57
2018-01-14T12:55:05.844Z,69.54
2018-01-14T12:56:05.875Z,69.39
2018-01-14T12:57:05.748Z,69.68
2018-01-14T12:58:05.833Z,69.74